sensor_id;sensor_type;location;lat;lon;timestamp;P1;durP1;ratioP1;P2;durP2;ratioP2
19605;SDS011;9950;50.168;8.210;2022-09-12T00:01:09;15.35;;;8.52;;
19605;SDS011;9950;50.168;8.210;2022-09-12T00:03:37;17.17;;;8.70;;
19605;SDS011;9950;50.168;8.210;2022-09-12T00:06:08;13.02;;;8.38;;
19605;SDS011;9950;50.168;8.210;2022-09-12T00:08:36;14.95;;;8.75;;
19605;SDS011;9950;50.168;8.210;2022-09-12T00:11:04;18.25;;;9.77;;
19605;SDS011;9950;50.168;8.210;2022-09-12T00:13:33;15.85;;;8.93;;
19605;SDS011;9950;50.168;8.210;2022-09-12T00:16:00;15.75;;;8.40;;
19605;SDS011;9950;50.168;8.210;2022-09-12T00:18:27;15.30;;;8.48;;
19605;SDS011;9950;50.168;8.210;2022-09-12T00:20:55;15.75;;;8.48;;
19605;SDS011;9950;50.168;8.210;2022-09-12T00:23:22;15.07;;;8.50;;
19605;SDS011;9950;50.168;8.210;2022-09-12T00:25:49;16.38;;;8.65;;
19605;SDS011;9950;50.168;8.210;2022-09-12T00:28:16;14.20;;;8.10;;
19605;SDS011;9950;50.168;8.210;2022-09-12T00:30:47;12.77;;;7.43;;
19605;SDS011;9950;50.168;8.210;2022-09-12T00:33:15;14.52;;;7.88;;
19605;SDS011;9950;50.168;8.210;2022-09-12T00:35:42;14.88;;;7.95;;
19605;SDS011;9950;50.168;8.210;2022-09-12T00:38:10;13.10;;;7.68;;
19605;SDS011;9950;50.168;8.210;2022-09-12T00:40:37;13.70;;;8.48;;
19605;SDS011;9950;50.168;8.210;2022-09-12T00:43:04;16.92;;;7.38;;
19605;SDS011;9950;50.168;8.210;2022-09-12T00:45:31;21.65;;;8.32;;
19605;SDS011;9950;50.168;8.210;2022-09-12T00:48:01;15.98;;;7.70;;
19605;SDS011;9950;50.168;8.210;2022-09-12T00:50:29;14.43;;;7.70;;
19605;SDS011;9950;50.168;8.210;2022-09-12T00:52:59;13.10;;;7.70;;
19605;SDS011;9950;50.168;8.210;2022-09-12T00:55:30;14.40;;;7.43;;
19605;SDS011;9950;50.168;8.210;2022-09-12T00:57:59;14.57;;;8.35;;
19605;SDS011;9950;50.168;8.210;2022-09-12T01:00:27;13.45;;;7.90;;
19605;SDS011;9950;50.168;8.210;2022-09-12T01:02:55;14.95;;;8.43;;
19605;SDS011;9950;50.168;8.210;2022-09-12T01:05:24;17.48;;;8.45;;
19605;SDS011;9950;50.168;8.210;2022-09-12T01:07:52;13.48;;;8.05;;
19605;SDS011;9950;50.168;8.210;2022-09-12T01:10:20;13.50;;;7.85;;
19605;SDS011;9950;50.168;8.210;2022-09-12T01:12:48;12.02;;;7.50;;
19605;SDS011;9950;50.168;8.210;2022-09-12T01:15:15;13.35;;;7.90;;
19605;SDS011;9950;50.168;8.210;2022-09-12T01:17:47;14.55;;;8.25;;
19605;SDS011;9950;50.168;8.210;2022-09-12T01:20:28;17.70;;;8.10;;
19605;SDS011;9950;50.168;8.210;2022-09-12T01:25:42;11.63;;;7.03;;
19605;SDS011;9950;50.168;8.210;2022-09-12T01:28:22;15.18;;;8.38;;
19605;SDS011;9950;50.168;8.210;2022-09-12T01:30:56;15.05;;;8.18;;
19605;SDS011;9950;50.168;8.210;2022-09-12T01:33:33;13.23;;;7.53;;
19605;SDS011;9950;50.168;8.210;2022-09-12T01:36:08;13.13;;;7.63;;
19605;SDS011;9950;50.168;8.210;2022-09-12T01:38:40;15.25;;;7.93;;
19605;SDS011;9950;50.168;8.210;2022-09-12T01:41:13;13.55;;;7.75;;
19605;SDS011;9950;50.168;8.210;2022-09-12T01:43:43;15.55;;;8.43;;
19605;SDS011;9950;50.168;8.210;2022-09-12T01:46:15;12.65;;;6.82;;
19605;SDS011;9950;50.168;8.210;2022-09-12T01:48:44;14.85;;;7.40;;
19605;SDS011;9950;50.168;8.210;2022-09-12T01:51:15;16.05;;;8.48;;
19605;SDS011;9950;50.168;8.210;2022-09-12T01:53:45;14.65;;;8.50;;
19605;SDS011;9950;50.168;8.210;2022-09-12T01:56:16;15.57;;;8.20;;
19605;SDS011;9950;50.168;8.210;2022-09-12T01:58:46;14.20;;;7.72;;
19605;SDS011;9950;50.168;8.210;2022-09-12T02:01:18;14.95;;;7.95;;
19605;SDS011;9950;50.168;8.210;2022-09-12T02:03:47;14.48;;;9.18;;
19605;SDS011;9950;50.168;8.210;2022-09-12T02:06:17;13.63;;;8.55;;
19605;SDS011;9950;50.168;8.210;2022-09-12T02:08:45;15.98;;;10.02;;
19605;SDS011;9950;50.168;8.210;2022-09-12T02:11:13;16.17;;;10.43;;
19605;SDS011;9950;50.168;8.210;2022-09-12T02:13:41;12.93;;;7.45;;
19605;SDS011;9950;50.168;8.210;2022-09-12T02:16:09;14.65;;;7.78;;
19605;SDS011;9950;50.168;8.210;2022-09-12T02:18:39;13.02;;;7.13;;
19605;SDS011;9950;50.168;8.210;2022-09-12T02:21:07;14.57;;;6.60;;
19605;SDS011;9950;50.168;8.210;2022-09-12T02:23:35;16.00;;;8.32;;
19605;SDS011;9950;50.168;8.210;2022-09-12T02:26:04;14.07;;;7.97;;
19605;SDS011;9950;50.168;8.210;2022-09-12T02:28:35;13.15;;;8.15;;
19605;SDS011;9950;50.168;8.210;2022-09-12T02:31:06;15.40;;;8.70;;
19605;SDS011;9950;50.168;8.210;2022-09-12T02:33:40;16.25;;;9.20;;
19605;SDS011;9950;50.168;8.210;2022-09-12T02:36:11;15.23;;;8.23;;
19605;SDS011;9950;50.168;8.210;2022-09-12T02:38:47;16.38;;;8.98;;
19605;SDS011;9950;50.168;8.210;2022-09-12T02:41:15;15.18;;;8.50;;
19605;SDS011;9950;50.168;8.210;2022-09-12T02:43:43;13.65;;;8.50;;
19605;SDS011;9950;50.168;8.210;2022-09-12T02:46:12;14.73;;;8.35;;
19605;SDS011;9950;50.168;8.210;2022-09-12T02:48:43;17.42;;;8.35;;
19605;SDS011;9950;50.168;8.210;2022-09-12T02:51:10;14.82;;;8.05;;
19605;SDS011;9950;50.168;8.210;2022-09-12T02:53:37;12.10;;;7.22;;
19605;SDS011;9950;50.168;8.210;2022-09-12T02:56:06;15.95;;;8.35;;
19605;SDS011;9950;50.168;8.210;2022-09-12T02:58:33;14.50;;;9.43;;
19605;SDS011;9950;50.168;8.210;2022-09-12T03:01:03;13.20;;;7.50;;
19605;SDS011;9950;50.168;8.210;2022-09-12T03:03:37;11.20;;;7.25;;
19605;SDS011;9950;50.168;8.210;2022-09-12T03:06:10;11.02;;;6.90;;
19605;SDS011;9950;50.168;8.210;2022-09-12T03:08:46;14.75;;;8.55;;
19605;SDS011;9950;50.168;8.210;2022-09-12T03:11:18;12.65;;;7.55;;
19605;SDS011;9950;50.168;8.210;2022-09-12T03:13:52;16.17;;;8.18;;
19605;SDS011;9950;50.168;8.210;2022-09-12T03:16:24;13.30;;;7.43;;
19605;SDS011;9950;50.168;8.210;2022-09-12T03:18:56;10.95;;;7.07;;
19605;SDS011;9950;50.168;8.210;2022-09-12T03:21:27;13.35;;;6.95;;
19605;SDS011;9950;50.168;8.210;2022-09-12T03:23:59;10.15;;;6.50;;
19605;SDS011;9950;50.168;8.210;2022-09-12T03:26:31;11.88;;;6.70;;
19605;SDS011;9950;50.168;8.210;2022-09-12T03:29:01;15.38;;;7.68;;
19605;SDS011;9950;50.168;8.210;2022-09-12T03:31:29;12.82;;;8.00;;
19605;SDS011;9950;50.168;8.210;2022-09-12T03:33:56;12.45;;;7.70;;
19605;SDS011;9950;50.168;8.210;2022-09-12T03:36:27;13.70;;;7.38;;
19605;SDS011;9950;50.168;8.210;2022-09-12T03:38:54;12.55;;;7.63;;
19605;SDS011;9950;50.168;8.210;2022-09-12T03:41:21;14.48;;;7.68;;
19605;SDS011;9950;50.168;8.210;2022-09-12T03:43:48;13.80;;;8.63;;
19605;SDS011;9950;50.168;8.210;2022-09-12T03:46:16;14.80;;;8.27;;
19605;SDS011;9950;50.168;8.210;2022-09-12T03:48:43;13.77;;;8.27;;
19605;SDS011;9950;50.168;8.210;2022-09-12T03:51:10;15.30;;;8.18;;
19605;SDS011;9950;50.168;8.210;2022-09-12T03:53:38;15.18;;;7.35;;
19605;SDS011;9950;50.168;8.210;2022-09-12T03:56:06;14.80;;;7.10;;
19605;SDS011;9950;50.168;8.210;2022-09-12T03:58:34;13.02;;;7.72;;
19605;SDS011;9950;50.168;8.210;2022-09-12T04:01:05;11.40;;;6.93;;
19605;SDS011;9950;50.168;8.210;2022-09-12T04:03:36;11.98;;;7.10;;
19605;SDS011;9950;50.168;8.210;2022-09-12T04:06:03;11.10;;;6.97;;
19605;SDS011;9950;50.168;8.210;2022-09-12T04:08:30;11.23;;;7.00;;
19605;SDS011;9950;50.168;8.210;2022-09-12T04:11:02;12.27;;;7.07;;
19605;SDS011;9950;50.168;8.210;2022-09-12T04:13:29;12.60;;;7.15;;
19605;SDS011;9950;50.168;8.210;2022-09-12T04:15:56;13.60;;;7.55;;
19605;SDS011;9950;50.168;8.210;2022-09-12T04:18:24;15.32;;;8.27;;
19605;SDS011;9950;50.168;8.210;2022-09-12T04:20:51;12.32;;;7.78;;
19605;SDS011;9950;50.168;8.210;2022-09-12T04:23:18;13.93;;;7.57;;
19605;SDS011;9950;50.168;8.210;2022-09-12T04:25:51;12.90;;;7.80;;
19605;SDS011;9950;50.168;8.210;2022-09-12T04:28:20;10.57;;;7.25;;
19605;SDS011;9950;50.168;8.210;2022-09-12T04:30:47;12.73;;;7.13;;
19605;SDS011;9950;50.168;8.210;2022-09-12T04:33:15;13.55;;;7.15;;
19605;SDS011;9950;50.168;8.210;2022-09-12T04:35:42;11.82;;;7.03;;
19605;SDS011;9950;50.168;8.210;2022-09-12T04:38:09;14.77;;;7.38;;
19605;SDS011;9950;50.168;8.210;2022-09-12T04:40:37;19.77;;;8.90;;
19605;SDS011;9950;50.168;8.210;2022-09-12T04:43:04;13.13;;;7.47;;
19605;SDS011;9950;50.168;8.210;2022-09-12T04:45:32;11.82;;;7.03;;
19605;SDS011;9950;50.168;8.210;2022-09-12T04:47:59;11.15;;;6.40;;
19605;SDS011;9950;50.168;8.210;2022-09-12T04:50:27;12.45;;;7.68;;
19605;SDS011;9950;50.168;8.210;2022-09-12T04:52:54;15.35;;;8.00;;
19605;SDS011;9950;50.168;8.210;2022-09-12T04:55:21;19.42;;;9.02;;
19605;SDS011;9950;50.168;8.210;2022-09-12T04:57:49;17.98;;;8.95;;
19605;SDS011;9950;50.168;8.210;2022-09-12T05:00:17;19.65;;;9.93;;
19605;SDS011;9950;50.168;8.210;2022-09-12T05:02:45;20.52;;;9.82;;
19605;SDS011;9950;50.168;8.210;2022-09-12T05:05:13;16.40;;;9.52;;
19605;SDS011;9950;50.168;8.210;2022-09-12T05:07:41;13.40;;;8.15;;
19605;SDS011;9950;50.168;8.210;2022-09-12T05:10:08;23.17;;;10.20;;
19605;SDS011;9950;50.168;8.210;2022-09-12T05:12:36;18.20;;;8.52;;
19605;SDS011;9950;50.168;8.210;2022-09-12T05:15:04;17.15;;;8.32;;
19605;SDS011;9950;50.168;8.210;2022-09-12T05:17:31;17.48;;;8.20;;
19605;SDS011;9950;50.168;8.210;2022-09-12T05:20:00;26.73;;;10.65;;
19605;SDS011;9950;50.168;8.210;2022-09-12T05:22:27;21.65;;;10.80;;
19605;SDS011;9950;50.168;8.210;2022-09-12T05:24:54;21.17;;;10.02;;
19605;SDS011;9950;50.168;8.210;2022-09-12T05:27:22;25.00;;;10.02;;
19605;SDS011;9950;50.168;8.210;2022-09-12T05:29:49;30.70;;;13.57;;
19605;SDS011;9950;50.168;8.210;2022-09-12T05:32:17;39.40;;;14.50;;
19605;SDS011;9950;50.168;8.210;2022-09-12T05:34:44;29.80;;;13.80;;
19605;SDS011;9950;50.168;8.210;2022-09-12T05:37:13;28.90;;;13.32;;
19605;SDS011;9950;50.168;8.210;2022-09-12T05:39:40;24.17;;;10.98;;
19605;SDS011;9950;50.168;8.210;2022-09-12T05:42:07;24.10;;;10.45;;
19605;SDS011;9950;50.168;8.210;2022-09-12T05:44:34;26.65;;;11.88;;
19605;SDS011;9950;50.168;8.210;2022-09-12T05:47:01;20.02;;;10.30;;
19605;SDS011;9950;50.168;8.210;2022-09-12T05:49:28;23.50;;;10.40;;
19605;SDS011;9950;50.168;8.210;2022-09-12T05:51:56;19.38;;;10.27;;
19605;SDS011;9950;50.168;8.210;2022-09-12T05:54:24;18.55;;;9.98;;
19605;SDS011;9950;50.168;8.210;2022-09-12T05:56:52;22.08;;;11.30;;
19605;SDS011;9950;50.168;8.210;2022-09-12T05:59:19;23.90;;;10.85;;
19605;SDS011;9950;50.168;8.210;2022-09-12T06:01:48;19.15;;;10.63;;
19605;SDS011;9950;50.168;8.210;2022-09-12T06:04:16;24.35;;;10.80;;
19605;SDS011;9950;50.168;8.210;2022-09-12T06:06:44;21.33;;;11.60;;
19605;SDS011;9950;50.168;8.210;2022-09-12T06:09:11;22.67;;;11.68;;
19605;SDS011;9950;50.168;8.210;2022-09-12T06:11:40;21.35;;;11.32;;
19605;SDS011;9950;50.168;8.210;2022-09-12T06:14:08;19.42;;;11.32;;
19605;SDS011;9950;50.168;8.210;2022-09-12T06:16:36;21.48;;;11.32;;
19605;SDS011;9950;50.168;8.210;2022-09-12T06:19:04;22.63;;;12.50;;
19605;SDS011;9950;50.168;8.210;2022-09-12T06:21:32;22.35;;;12.38;;
19605;SDS011;9950;50.168;8.210;2022-09-12T06:23:59;24.00;;;12.65;;
19605;SDS011;9950;50.168;8.210;2022-09-12T06:26:27;22.67;;;12.50;;
19605;SDS011;9950;50.168;8.210;2022-09-12T06:28:56;21.95;;;13.13;;
19605;SDS011;9950;50.168;8.210;2022-09-12T06:31:25;20.42;;;11.43;;
19605;SDS011;9950;50.168;8.210;2022-09-12T06:33:53;20.65;;;11.88;;
19605;SDS011;9950;50.168;8.210;2022-09-12T06:36:22;23.63;;;13.07;;
19605;SDS011;9950;50.168;8.210;2022-09-12T06:38:52;20.58;;;12.25;;
19605;SDS011;9950;50.168;8.210;2022-09-12T06:41:20;21.95;;;13.18;;
19605;SDS011;9950;50.168;8.210;2022-09-12T06:43:47;27.75;;;13.80;;
19605;SDS011;9950;50.168;8.210;2022-09-12T06:46:16;22.83;;;13.30;;
19605;SDS011;9950;50.168;8.210;2022-09-12T06:48:43;26.65;;;14.90;;
19605;SDS011;9950;50.168;8.210;2022-09-12T06:51:11;26.27;;;14.75;;
19605;SDS011;9950;50.168;8.210;2022-09-12T06:53:39;28.02;;;15.23;;
19605;SDS011;9950;50.168;8.210;2022-09-12T06:56:08;26.38;;;15.50;;
19605;SDS011;9950;50.168;8.210;2022-09-12T06:58:36;25.27;;;15.75;;
19605;SDS011;9950;50.168;8.210;2022-09-12T07:01:03;29.40;;;16.25;;
19605;SDS011;9950;50.168;8.210;2022-09-12T07:03:32;27.17;;;15.35;;
19605;SDS011;9950;50.168;8.210;2022-09-12T07:06:03;27.80;;;16.40;;
19605;SDS011;9950;50.168;8.210;2022-09-12T07:08:30;21.17;;;13.80;;
19605;SDS011;9950;50.168;8.210;2022-09-12T07:10:58;21.75;;;13.10;;
19605;SDS011;9950;50.168;8.210;2022-09-12T07:13:26;27.13;;;14.23;;
19605;SDS011;9950;50.168;8.210;2022-09-12T07:15:53;22.08;;;13.95;;
19605;SDS011;9950;50.168;8.210;2022-09-12T07:18:21;23.92;;;14.48;;
19605;SDS011;9950;50.168;8.210;2022-09-12T07:20:49;21.92;;;13.63;;
19605;SDS011;9950;50.168;8.210;2022-09-12T07:23:17;23.42;;;14.38;;
19605;SDS011;9950;50.168;8.210;2022-09-12T07:25:50;20.70;;;13.70;;
19605;SDS011;9950;50.168;8.210;2022-09-12T07:28:18;21.50;;;13.88;;
19605;SDS011;9950;50.168;8.210;2022-09-12T07:30:45;20.33;;;14.40;;
19605;SDS011;9950;50.168;8.210;2022-09-12T07:33:12;18.80;;;12.55;;
19605;SDS011;9950;50.168;8.210;2022-09-12T07:35:39;24.17;;;13.75;;
19605;SDS011;9950;50.168;8.210;2022-09-12T07:38:08;21.27;;;13.38;;
19605;SDS011;9950;50.168;8.210;2022-09-12T07:40:35;18.73;;;12.10;;
19605;SDS011;9950;50.168;8.210;2022-09-12T07:43:02;17.55;;;12.27;;
19605;SDS011;9950;50.168;8.210;2022-09-12T07:45:30;15.25;;;11.35;;
19605;SDS011;9950;50.168;8.210;2022-09-12T07:47:57;16.15;;;11.25;;
19605;SDS011;9950;50.168;8.210;2022-09-12T07:50:24;17.73;;;10.63;;
19605;SDS011;9950;50.168;8.210;2022-09-12T07:52:52;16.42;;;10.98;;
19605;SDS011;9950;50.168;8.210;2022-09-12T07:55:21;17.55;;;11.30;;
19605;SDS011;9950;50.168;8.210;2022-09-12T07:57:48;14.68;;;10.63;;
19605;SDS011;9950;50.168;8.210;2022-09-12T08:00:16;17.85;;;10.23;;
19605;SDS011;9950;50.168;8.210;2022-09-12T08:02:43;17.50;;;10.75;;
19605;SDS011;9950;50.168;8.210;2022-09-12T08:05:10;14.40;;;10.18;;
19605;SDS011;9950;50.168;8.210;2022-09-12T08:07:38;14.20;;;9.00;;
19605;SDS011;9950;50.168;8.210;2022-09-12T08:10:05;11.98;;;9.20;;
19605;SDS011;9950;50.168;8.210;2022-09-12T08:12:34;14.93;;;9.00;;
19605;SDS011;9950;50.168;8.210;2022-09-12T08:15:01;12.80;;;9.10;;
19605;SDS011;9950;50.168;8.210;2022-09-12T08:17:28;12.18;;;9.13;;
19605;SDS011;9950;50.168;8.210;2022-09-12T08:19:55;10.35;;;8.02;;
19605;SDS011;9950;50.168;8.210;2022-09-12T08:22:23;11.65;;;8.52;;
19605;SDS011;9950;50.168;8.210;2022-09-12T08:24:50;11.90;;;7.97;;
19605;SDS011;9950;50.168;8.210;2022-09-12T08:27:17;12.27;;;8.10;;
19605;SDS011;9950;50.168;8.210;2022-09-12T08:29:46;11.52;;;7.75;;
19605;SDS011;9950;50.168;8.210;2022-09-12T08:32:14;10.50;;;7.75;;
19605;SDS011;9950;50.168;8.210;2022-09-12T08:34:41;11.85;;;8.30;;
19605;SDS011;9950;50.168;8.210;2022-09-12T08:37:08;11.55;;;8.60;;
19605;SDS011;9950;50.168;8.210;2022-09-12T08:39:35;10.82;;;7.85;;
19605;SDS011;9950;50.168;8.210;2022-09-12T08:42:03;10.82;;;7.80;;
19605;SDS011;9950;50.168;8.210;2022-09-12T08:44:37;13.63;;;7.72;;
19605;SDS011;9950;50.168;8.210;2022-09-12T08:47:13;8.95;;;7.25;;
19605;SDS011;9950;50.168;8.210;2022-09-12T08:49:46;9.93;;;7.78;;
19605;SDS011;9950;50.168;8.210;2022-09-12T08:52:17;9.07;;;7.05;;
19605;SDS011;9950;50.168;8.210;2022-09-12T08:54:45;12.10;;;7.63;;
19605;SDS011;9950;50.168;8.210;2022-09-12T08:57:13;10.40;;;7.15;;
19605;SDS011;9950;50.168;8.210;2022-09-12T08:59:41;11.07;;;7.63;;
19605;SDS011;9950;50.168;8.210;2022-09-12T09:02:15;12.95;;;7.60;;
19605;SDS011;9950;50.168;8.210;2022-09-12T09:04:47;9.32;;;6.82;;
19605;SDS011;9950;50.168;8.210;2022-09-12T09:07:23;7.95;;;6.78;;
19605;SDS011;9950;50.168;8.210;2022-09-12T09:09:58;10.18;;;7.30;;
19605;SDS011;9950;50.168;8.210;2022-09-12T09:12:34;9.60;;;7.10;;
19605;SDS011;9950;50.168;8.210;2022-09-12T09:15:12;10.23;;;7.03;;
19605;SDS011;9950;50.168;8.210;2022-09-12T09:17:48;10.07;;;6.93;;
19605;SDS011;9950;50.168;8.210;2022-09-12T09:20:20;9.38;;;7.30;;
19605;SDS011;9950;50.168;8.210;2022-09-12T09:22:48;8.40;;;6.10;;
19605;SDS011;9950;50.168;8.210;2022-09-12T09:25:18;11.43;;;6.75;;
19605;SDS011;9950;50.168;8.210;2022-09-12T09:27:46;10.88;;;6.82;;
19605;SDS011;9950;50.168;8.210;2022-09-12T09:30:15;9.77;;;7.13;;
19605;SDS011;9950;50.168;8.210;2022-09-12T09:32:43;11.23;;;7.15;;
19605;SDS011;9950;50.168;8.210;2022-09-12T09:35:15;9.98;;;7.05;;
19605;SDS011;9950;50.168;8.210;2022-09-12T09:37:43;9.93;;;6.72;;
19605;SDS011;9950;50.168;8.210;2022-09-12T09:40:15;9.98;;;7.13;;
19605;SDS011;9950;50.168;8.210;2022-09-12T09:42:43;31.58;;;9.25;;
19605;SDS011;9950;50.168;8.210;2022-09-12T09:45:12;9.75;;;6.35;;
19605;SDS011;9950;50.168;8.210;2022-09-12T09:47:40;10.85;;;6.82;;
19605;SDS011;9950;50.168;8.210;2022-09-12T09:50:10;11.38;;;6.80;;
19605;SDS011;9950;50.168;8.210;2022-09-12T09:52:42;7.93;;;5.82;;
19605;SDS011;9950;50.168;8.210;2022-09-12T09:55:11;9.88;;;6.78;;
19605;SDS011;9950;50.168;8.210;2022-09-12T09:57:42;10.02;;;6.70;;
19605;SDS011;9950;50.168;8.210;2022-09-12T10:00:24;9.05;;;6.97;;
19605;SDS011;9950;50.168;8.210;2022-09-12T10:02:59;9.95;;;6.82;;
19605;SDS011;9950;50.168;8.210;2022-09-12T10:05:27;8.63;;;6.35;;
19605;SDS011;9950;50.168;8.210;2022-09-12T10:07:56;9.13;;;6.00;;
19605;SDS011;9950;50.168;8.210;2022-09-12T10:10:24;10.85;;;6.93;;
19605;SDS011;9950;50.168;8.210;2022-09-12T10:12:51;9.85;;;6.93;;
19605;SDS011;9950;50.168;8.210;2022-09-12T10:15:32;9.55;;;6.60;;
19605;SDS011;9950;50.168;8.210;2022-09-12T10:17:59;9.63;;;6.07;;
19605;SDS011;9950;50.168;8.210;2022-09-12T10:20:31;10.52;;;6.78;;
19605;SDS011;9950;50.168;8.210;2022-09-12T10:23:00;10.82;;;6.07;;
19605;SDS011;9950;50.168;8.210;2022-09-12T10:25:27;11.73;;;6.93;;
19605;SDS011;9950;50.168;8.210;2022-09-12T10:27:56;8.98;;;6.22;;
19605;SDS011;9950;50.168;8.210;2022-09-12T10:30:24;9.57;;;6.55;;
19605;SDS011;9950;50.168;8.210;2022-09-12T10:32:52;10.57;;;6.50;;
19605;SDS011;9950;50.168;8.210;2022-09-12T10:35:20;8.32;;;5.78;;
19605;SDS011;9950;50.168;8.210;2022-09-12T10:37:49;9.98;;;6.18;;
19605;SDS011;9950;50.168;8.210;2022-09-12T10:40:23;8.90;;;6.45;;
19605;SDS011;9950;50.168;8.210;2022-09-12T10:42:51;8.77;;;6.00;;
19605;SDS011;9950;50.168;8.210;2022-09-12T10:45:19;11.27;;;6.13;;
19605;SDS011;9950;50.168;8.210;2022-09-12T10:47:47;11.50;;;7.03;;
19605;SDS011;9950;50.168;8.210;2022-09-12T10:50:22;9.57;;;5.97;;
19605;SDS011;9950;50.168;8.210;2022-09-12T10:52:51;8.88;;;5.55;;
19605;SDS011;9950;50.168;8.210;2022-09-12T10:55:19;9.40;;;5.80;;
19605;SDS011;9950;50.168;8.210;2022-09-12T10:57:52;8.15;;;6.43;;
19605;SDS011;9950;50.168;8.210;2022-09-12T11:00:22;11.00;;;6.57;;
19605;SDS011;9950;50.168;8.210;2022-09-12T11:02:58;11.88;;;6.70;;
19605;SDS011;9950;50.168;8.210;2022-09-12T11:05:55;9.02;;;6.00;;
19605;SDS011;9950;50.168;8.210;2022-09-12T11:08:39;7.85;;;5.60;;
19605;SDS011;9950;50.168;8.210;2022-09-12T11:11:11;6.90;;;4.80;;
19605;SDS011;9950;50.168;8.210;2022-09-12T11:13:48;9.98;;;5.55;;
19605;SDS011;9950;50.168;8.210;2022-09-12T11:16:19;10.75;;;6.30;;
19605;SDS011;9950;50.168;8.210;2022-09-12T11:18:55;9.07;;;6.32;;
19605;SDS011;9950;50.168;8.210;2022-09-12T11:21:32;9.50;;;5.57;;
19605;SDS011;9950;50.168;8.210;2022-09-12T11:24:07;7.18;;;5.18;;
19605;SDS011;9950;50.168;8.210;2022-09-12T11:26:40;8.13;;;5.25;;
19605;SDS011;9950;50.168;8.210;2022-09-12T11:29:11;11.18;;;6.30;;
19605;SDS011;9950;50.168;8.210;2022-09-12T11:34:41;8.25;;;5.60;;
19605;SDS011;9950;50.168;8.210;2022-09-12T11:37:18;10.18;;;6.13;;
19605;SDS011;9950;50.168;8.210;2022-09-12T11:39:46;6.60;;;5.50;;
19605;SDS011;9950;50.168;8.210;2022-09-12T11:42:15;7.55;;;5.28;;
19605;SDS011;9950;50.168;8.210;2022-09-12T11:44:45;8.43;;;5.25;;
19605;SDS011;9950;50.168;8.210;2022-09-12T11:47:13;6.32;;;5.10;;
19605;SDS011;9950;50.168;8.210;2022-09-12T11:49:43;6.53;;;5.80;;
19605;SDS011;9950;50.168;8.210;2022-09-12T11:52:13;7.32;;;5.30;;
19605;SDS011;9950;50.168;8.210;2022-09-12T11:54:42;6.95;;;5.43;;
19605;SDS011;9950;50.168;8.210;2022-09-12T11:57:13;6.93;;;5.03;;
19605;SDS011;9950;50.168;8.210;2022-09-12T11:59:42;5.32;;;4.60;;
19605;SDS011;9950;50.168;8.210;2022-09-12T12:02:13;4.75;;;4.25;;
19605;SDS011;9950;50.168;8.210;2022-09-12T12:04:44;5.22;;;4.38;;
19605;SDS011;9950;50.168;8.210;2022-09-12T12:07:13;5.45;;;4.50;;
19605;SDS011;9950;50.168;8.210;2022-09-12T12:09:45;7.38;;;4.93;;
19605;SDS011;9950;50.168;8.210;2022-09-12T12:12:14;6.90;;;5.18;;
19605;SDS011;9950;50.168;8.210;2022-09-12T12:14:43;4.68;;;4.18;;
19605;SDS011;9950;50.168;8.210;2022-09-12T12:17:14;7.70;;;4.22;;
19605;SDS011;9950;50.168;8.210;2022-09-12T12:19:41;6.90;;;5.10;;
19605;SDS011;9950;50.168;8.210;2022-09-12T12:22:14;6.47;;;4.80;;
19605;SDS011;9950;50.168;8.210;2022-09-12T12:24:54;5.60;;;4.10;;
19605;SDS011;9950;50.168;8.210;2022-09-12T12:27:43;5.93;;;4.55;;
19605;SDS011;9950;50.168;8.210;2022-09-12T12:32:57;5.72;;;4.68;;
19605;SDS011;9950;50.168;8.210;2022-09-12T12:35:38;5.15;;;4.30;;
19605;SDS011;9950;50.168;8.210;2022-09-12T12:40:49;6.55;;;5.35;;
19605;SDS011;9950;50.168;8.210;2022-09-12T12:43:29;7.55;;;5.13;;
19605;SDS011;9950;50.168;8.210;2022-09-12T12:46:03;6.07;;;5.10;;
19605;SDS011;9950;50.168;8.210;2022-09-12T12:51:21;7.70;;;4.40;;
19605;SDS011;9950;50.168;8.210;2022-09-12T12:53:52;5.55;;;4.32;;
19605;SDS011;9950;50.168;8.210;2022-09-12T12:56:27;6.78;;;5.55;;
19605;SDS011;9950;50.168;8.210;2022-09-12T12:58:56;4.95;;;4.30;;
19605;SDS011;9950;50.168;8.210;2022-09-12T13:01:24;5.40;;;4.50;;
19605;SDS011;9950;50.168;8.210;2022-09-12T13:03:52;7.15;;;4.45;;
19605;SDS011;9950;50.168;8.210;2022-09-12T13:06:23;5.38;;;4.15;;
19605;SDS011;9950;50.168;8.210;2022-09-12T13:08:54;5.93;;;4.18;;
19605;SDS011;9950;50.168;8.210;2022-09-12T13:11:28;5.32;;;4.40;;
19605;SDS011;9950;50.168;8.210;2022-09-12T13:13:57;4.53;;;3.67;;
19605;SDS011;9950;50.168;8.210;2022-09-12T13:16:28;3.17;;;2.70;;
19605;SDS011;9950;50.168;8.210;2022-09-12T13:18:55;4.60;;;3.22;;
19605;SDS011;9950;50.168;8.210;2022-09-12T13:21:23;4.75;;;2.97;;
19605;SDS011;9950;50.168;8.210;2022-09-12T13:23:57;3.47;;;3.15;;
19605;SDS011;9950;50.168;8.210;2022-09-12T13:26:27;3.80;;;2.50;;
19605;SDS011;9950;50.168;8.210;2022-09-12T13:29:08;3.40;;;3.10;;
19605;SDS011;9950;50.168;8.210;2022-09-12T13:31:35;5.03;;;2.70;;
19605;SDS011;9950;50.168;8.210;2022-09-12T13:34:03;14.57;;;3.50;;
19605;SDS011;9950;50.168;8.210;2022-09-12T13:36:36;4.78;;;2.60;;
19605;SDS011;9950;50.168;8.210;2022-09-12T13:39:09;5.85;;;3.28;;
19605;SDS011;9950;50.168;8.210;2022-09-12T13:44:23;3.33;;;2.90;;
19605;SDS011;9950;50.168;8.210;2022-09-12T13:46:51;4.03;;;2.75;;
19605;SDS011;9950;50.168;8.210;2022-09-12T13:49:20;2.67;;;2.15;;
19605;SDS011;9950;50.168;8.210;2022-09-12T13:51:53;3.17;;;2.88;;
19605;SDS011;9950;50.168;8.210;2022-09-12T13:54:24;2.75;;;2.45;;
19605;SDS011;9950;50.168;8.210;2022-09-12T13:56:52;3.05;;;2.75;;
19605;SDS011;9950;50.168;8.210;2022-09-12T13:59:19;2.80;;;2.60;;
19605;SDS011;9950;50.168;8.210;2022-09-12T14:01:47;3.88;;;2.33;;
19605;SDS011;9950;50.168;8.210;2022-09-12T14:04:15;2.90;;;2.00;;
19605;SDS011;9950;50.168;8.210;2022-09-12T14:07:16;3.42;;;2.50;;
19605;SDS011;9950;50.168;8.210;2022-09-12T14:09:45;2.53;;;2.20;;
19605;SDS011;9950;50.168;8.210;2022-09-12T14:12:18;2.65;;;2.30;;
19605;SDS011;9950;50.168;8.210;2022-09-12T14:14:49;2.28;;;1.85;;
19605;SDS011;9950;50.168;8.210;2022-09-12T14:17:21;2.50;;;2.20;;
19605;SDS011;9950;50.168;8.210;2022-09-12T14:19:50;3.05;;;2.55;;
19605;SDS011;9950;50.168;8.210;2022-09-12T14:22:17;4.10;;;2.50;;
19605;SDS011;9950;50.168;8.210;2022-09-12T14:24:45;2.67;;;2.47;;
19605;SDS011;9950;50.168;8.210;2022-09-12T14:27:14;2.92;;;2.53;;
19605;SDS011;9950;50.168;8.210;2022-09-12T14:29:42;3.10;;;2.35;;
19605;SDS011;9950;50.168;8.210;2022-09-12T14:32:12;2.53;;;2.25;;
19605;SDS011;9950;50.168;8.210;2022-09-12T14:37:28;4.85;;;2.70;;
19605;SDS011;9950;50.168;8.210;2022-09-12T14:39:55;3.70;;;2.95;;
19605;SDS011;9950;50.168;8.210;2022-09-12T14:42:24;2.70;;;2.50;;
19605;SDS011;9950;50.168;8.210;2022-09-12T14:44:53;2.88;;;2.60;;
19605;SDS011;9950;50.168;8.210;2022-09-12T14:47:22;3.30;;;2.33;;
19605;SDS011;9950;50.168;8.210;2022-09-12T14:49:50;2.63;;;2.42;;
19605;SDS011;9950;50.168;8.210;2022-09-12T14:52:22;3.47;;;2.15;;
19605;SDS011;9950;50.168;8.210;2022-09-12T14:54:58;2.85;;;2.65;;
19605;SDS011;9950;50.168;8.210;2022-09-12T14:57:30;2.47;;;2.28;;
19605;SDS011;9950;50.168;8.210;2022-09-12T15:00:05;4.70;;;2.78;;
19605;SDS011;9950;50.168;8.210;2022-09-12T15:02:35;2.88;;;2.15;;
19605;SDS011;9950;50.168;8.210;2022-09-12T15:05:16;2.60;;;2.40;;
19605;SDS011;9950;50.168;8.210;2022-09-12T15:07:44;2.88;;;2.45;;
19605;SDS011;9950;50.168;8.210;2022-09-12T15:10:20;3.60;;;2.60;;
19605;SDS011;9950;50.168;8.210;2022-09-12T15:12:49;3.50;;;2.65;;
19605;SDS011;9950;50.168;8.210;2022-09-12T15:15:17;2.78;;;2.50;;
19605;SDS011;9950;50.168;8.210;2022-09-12T15:17:44;3.40;;;2.88;;
19605;SDS011;9950;50.168;8.210;2022-09-12T15:20:12;3.17;;;2.80;;
19605;SDS011;9950;50.168;8.210;2022-09-12T15:22:39;4.57;;;2.83;;
19605;SDS011;9950;50.168;8.210;2022-09-12T15:25:08;3.58;;;2.63;;